Time;durP1;ratioP1;P1;durP2;ratioP2;P2;SDS_P1;SDS_P2;PMS_P1;PMS_P2;Temp;Humidity;BMP_temperature;BMP_pressure;BME280_temperature;BME280_humidity;BME280_pressure;Samples;Min_cycle;Max_cycle;Signal;HPM_P1;HPM_P2
2022/07/18 00:00:01;;;;;;;2.80;2.60;;;24.10;90.60;;;;;;6169184;28;89524;-65
2022/07/18 00:03:04;;;;;;;3.60;2.95;;;24.20;90.60;;;;;;6167918;28;89189;-64
2022/07/18 00:06:07;;;;;;;2.92;2.63;;;24.10;90.60;;;;;;6167848;28;91290;-65
2022/07/18 00:09:09;;;;;;;3.25;2.63;;;24.10;90.70;;;;;;6169601;28;89305;-65
2022/07/18 00:12:12;;;;;;;3.03;2.72;;;24.10;90.70;;;;;;6169262;28;88991;-65
2022/07/18 00:15:14;;;;;;;3.13;2.83;;;24.10;90.70;;;;;;6168949;28;89876;-64
2022/07/18 00:18:16;;;;;;;3.20;2.58;;;24.10;90.80;;;;;;6169833;28;88332;-65
2022/07/18 00:21:20;;;;;;;3.25;2.95;;;24.10;90.70;;;;;;6168107;28;88525;-65
2022/07/18 00:24:22;;;;;;;3.20;2.90;;;24.10;90.70;;;;;;6169332;28;88280;-65
2022/07/18 00:27:24;;;;;;;3.92;3.25;;;24.10;90.70;;;;;;6165955;28;89529;-64
2022/07/18 00:30:26;;;;;;;3.58;3.28;;;24.10;90.70;;;;;;6169055;28;88236;-65
2022/07/18 00:33:28;;;;;;;3.30;3.00;;;24.10;90.90;;;;;;6169142;28;89130;-65
2022/07/18 00:36:32;;;;;;;3.50;3.20;;;24.10;90.70;;;;;;6169338;28;88337;-64
2022/07/18 00:39:34;;;;;;;3.67;3.33;;;24.10;90.70;;;;;;6169005;28;88467;-65
2022/07/18 00:42:36;;;;;;;4.03;3.13;;;24.10;90.70;;;;;;6168398;28;88452;-65
2022/07/18 00:45:38;;;;;;;3.92;3.50;;;24.10;90.70;;;;;;6168723;28;89178;-65
2022/07/18 00:48:40;;;;;;;3.67;3.38;;;24.10;90.80;;;;;;6168927;28;88695;-65
2022/07/18 00:51:43;;;;;;;4.13;3.72;;;24.10;90.80;;;;;;6168450;28;90046;-65
2022/07/18 00:54:46;;;;;;;4.20;3.80;;;24.10;90.80;;;;;;6169559;28;89118;-64
2022/07/18 00:57:48;;;;;;;3.85;3.47;;;24.10;90.80;;;;;;6167803;28;90075;-65
2022/07/18 01:04:10;;;;;;;5.25;3.85;;;24.10;90.90;;;;;;6167175;28;88419;-65
2022/07/18 01:07:13;;;;;;;4.35;3.85;;;24.10;90.80;;;;;;6168649;28;89113;-65
2022/07/18 01:10:15;;;;;;;3.85;3.55;;;24.10;90.80;;;;;;6169980;28;89083;-65
2022/07/18 01:13:17;;;;;;;3.80;3.47;;;24.10;90.80;;;;;;6168312;28;89255;-64
2022/07/18 01:16:19;;;;;;;4.07;3.67;;;24.10;90.80;;;;;;6167225;28;89089;-64
2022/07/18 01:19:22;;;;;;;4.28;3.88;;;24.10;90.80;;;;;;6169230;28;88389;-65
2022/07/18 01:22:25;;;;;;;4.28;3.88;;;24.10;90.80;;;;;;6167708;28;88394;-65
2022/07/18 01:25:28;;;;;;;4.32;3.45;;;24.10;90.80;;;;;;6160215;28;89077;-65
2022/07/18 01:28:30;;;;;;;3.75;3.45;;;24.10;90.90;;;;;;6156149;28;90364;-64
2022/07/18 01:31:33;;;;;;;4.00;3.53;;;24.10;90.90;;;;;;6156967;28;89106;-65
2022/07/18 01:34:35;;;;;;;3.67;3.38;;;24.10;90.90;;;;;;6165374;28;89514;-64
2022/07/18 01:37:39;;;;;;;3.88;3.58;;;24.10;90.90;;;;;;6180555;28;89096;-64
2022/07/18 01:40:41;;;;;;;4.13;3.72;;;24.10;90.90;;;;;;6174874;28;89349;-64
2022/07/18 01:43:43;;;;;;;4.72;3.55;;;24.10;90.90;;;;;;6174735;28;88124;-64
2022/07/18 01:46:45;;;;;;;4.30;3.90;;;24.10;91.00;;;;;;6170089;28;89123;-64
2022/07/18 01:49:47;;;;;;;4.25;3.85;;;24.00;91.00;;;;;;6161178;28;88265;-64
2022/07/18 01:52:51;;;;;;;3.90;3.60;;;24.10;91.00;;;;;;6165752;28;89068;-64
2022/07/18 01:55:53;;;;;;;4.65;3.70;;;24.10;91.00;;;;;;6171326;28;88972;-64
2022/07/18 01:58:56;;;;;;;4.50;3.95;;;24.10;91.00;;;;;;6157248;28;90393;-64
2022/07/18 02:01:58;;;;;;;5.03;4.20;;;24.10;91.00;;;;;;6169446;28;89232;-64
2022/07/18 02:05:00;;;;;;;4.20;3.80;;;24.10;91.00;;;;;;6161657;28;89236;-64
2022/07/18 02:08:04;;;;;;;4.13;3.70;;;24.10;91.00;;;;;;6175787;28;89610;-64
2022/07/18 02:11:06;;;;;;;4.15;3.80;;;24.10;90.90;;;;;;6155941;28;89634;-65
2022/07/18 02:14:08;;;;;;;4.13;3.72;;;24.10;91.00;;;;;;6163601;28;89020;-64
2022/07/18 02:17:10;;;;;;;3.53;3.22;;;24.10;91.00;;;;;;6174968;28;89371;-64
2022/07/18 02:20:14;;;;;;;4.40;4.00;;;24.10;91.00;;;;;;6177413;28;88311;-65
2022/07/18 02:23:17;;;;;;;4.80;3.88;;;24.10;91.00;;;;;;6175037;28;89279;-64
2022/07/18 02:26:19;;;;;;;4.28;3.83;;;24.10;91.00;;;;;;6178667;28;88692;-64
2022/07/18 02:29:21;;;;;;;5.00;4.10;;;24.00;91.00;;;;;;6174537;28;89931;-64
2022/07/18 02:32:24;;;;;;;4.20;3.80;;;24.10;91.10;;;;;;6164940;28;89074;-64
2022/07/18 02:35:26;;;;;;;3.95;3.65;;;24.10;91.10;;;;;;6173232;28;89436;-64
2022/07/18 02:38:29;;;;;;;4.40;3.97;;;24.10;91.10;;;;;;6166518;28;89097;-64
2022/07/18 02:41:31;;;;;;;4.20;3.80;;;24.10;91.00;;;;;;6178856;28;89083;-64
2022/07/18 02:44:33;;;;;;;3.97;3.53;;;24.10;91.00;;;;;;6181079;28;90030;-64
2022/07/18 02:47:35;;;;;;;3.65;3.35;;;24.10;91.00;;;;;;6183100;28;89200;-64
2022/07/18 02:50:37;;;;;;;4.10;3.70;;;24.10;91.00;;;;;;6173776;28;88442;-64
2022/07/18 02:53:41;;;;;;;3.80;3.50;;;24.10;91.10;;;;;;6184376;28;89097;-64
2022/07/18 02:56:43;;;;;;;4.15;3.72;;;24.10;91.00;;;;;;6171262;28;89718;-64
2022/07/18 02:59:45;;;;;;;3.80;3.50;;;24.10;91.10;;;;;;6183227;28;90110;-65
2022/07/18 03:02:47;;;;;;;4.25;3.70;;;24.10;91.10;;;;;;6171648;28;89185;-64
2022/07/18 03:05:49;;;;;;;3.20;2.90;;;24.10;91.10;;;;;;6185063;28;89570;-64
2022/07/18 03:08:53;;;;;;;4.20;3.80;;;24.10;91.10;;;;;;6183697;28;92695;-64
2022/07/18 03:11:55;;;;;;;3.97;3.67;;;24.10;91.10;;;;;;6182883;28;89034;-64
2022/07/18 03:14:57;;;;;;;3.80;3.50;;;24.10;91.20;;;;;;6173486;28;90660;-64
2022/07/18 03:18:00;;;;;;;4.03;3.63;;;24.00;91.10;;;;;;6171553;28;87997;-64
2022/07/18 03:21:02;;;;;;;3.70;3.40;;;24.00;91.10;;;;;;6164703;28;88359;-64
2022/07/18 03:24:06;;;;;;;4.13;3.70;;;24.10;91.20;;;;;;6180255;28;89903;-64
2022/07/18 03:27:08;;;;;;;4.18;3.78;;;24.00;91.20;;;;;;6161582;28;88980;-64
2022/07/18 03:30:11;;;;;;;4.03;3.42;;;24.10;91.20;;;;;;6185462;28;90062;-64
2022/07/18 03:33:13;;;;;;;4.05;3.63;;;24.10;91.10;;;;;;6169862;28;90780;-64
2022/07/18 03:36:15;;;;;;;3.83;3.53;;;24.10;91.10;;;;;;6169646;28;89199;-64
2022/07/18 03:39:19;;;;;;;4.22;3.83;;;24.00;91.10;;;;;;6181220;28;88159;-64
2022/07/18 03:42:21;;;;;;;4.10;3.58;;;24.10;91.10;;;;;;6180059;28;89340;-64
2022/07/18 03:45:22;;;;;;;3.70;3.33;;;24.00;91.10;;;;;;6195666;28;89388;-64
2022/07/18 03:48:25;;;;;;;3.97;3.40;;;24.10;91.10;;;;;;6159697;28;89168;-64
2022/07/18 03:51:27;;;;;;;3.72;3.33;;;24.10;91.10;;;;;;6179915;28;88522;-64
2022/07/18 03:54:31;;;;;;;3.80;3.47;;;24.00;91.10;;;;;;6165947;28;89083;-64
2022/07/18 03:57:32;;;;;;;3.65;3.28;;;24.00;91.10;;;;;;6171463;28;89125;-64
2022/07/18 04:00:34;;;;;;;4.20;3.70;;;24.00;91.10;;;;;;6171448;28;90020;-64
2022/07/18 04:03:37;;;;;;;3.50;3.20;;;24.10;91.20;;;;;;6183005;28;87997;-64
2022/07/18 04:06:39;;;;;;;3.50;3.20;;;24.00;91.10;;;;;;6171153;28;88980;-64
2022/07/18 04:09:42;;;;;;;3.60;3.30;;;24.00;91.20;;;;;;6169205;28;89263;-64
2022/07/18 04:12:48;;;;;;;4.55;3.70;;;24.10;91.20;;;;;;6178714;28;89179;-64
2022/07/18 04:15:50;;;;;;;3.50;3.20;;;24.10;91.20;;;;;;6165312;28;88109;-64
2022/07/18 04:18:53;;;;;;;4.13;3.50;;;24.00;91.10;;;;;;6170385;28;89381;-64
2022/07/18 04:21:55;;;;;;;3.70;2.97;;;24.00;91.10;;;;;;6171905;28;87237;-64
2022/07/18 04:24:58;;;;;;;3.50;3.20;;;24.00;91.20;;;;;;6163203;28;90755;-65
2022/07/18 04:28:00;;;;;;;3.97;3.10;;;24.00;91.10;;;;;;6177098;28;88337;-64
2022/07/18 04:31:02;;;;;;;3.50;3.20;;;24.00;91.10;;;;;;6169569;28;90289;-64
2022/07/18 04:34:04;;;;;;;3.40;3.10;;;24.00;91.10;;;;;;6159697;28;88014;-64
2022/07/18 04:37:06;;;;;;;3.40;3.10;;;24.00;91.20;;;;;;6177049;28;89376;-64
2022/07/18 04:40:12;;;;;;;3.50;3.20;;;24.00;91.20;;;;;;6179880;28;88007;-64
2022/07/18 04:43:14;;;;;;;3.47;3.17;;;24.00;91.20;;;;;;6180448;28;89164;-64
2022/07/18 04:46:16;;;;;;;3.40;3.10;;;24.10;91.20;;;;;;6178133;28;89078;-64
2022/07/18 04:49:18;;;;;;;3.60;3.30;;;24.00;91.20;;;;;;6172631;28;88340;-64
2022/07/18 04:52:20;;;;;;;3.45;3.15;;;24.10;91.20;;;;;;6174691;28;88576;-64
2022/07/18 04:55:24;;;;;;;3.20;2.90;;;24.00;91.20;;;;;;6165652;28;89182;-64
2022/07/18 04:58:26;;;;;;;3.05;2.75;;;24.10;91.20;;;;;;6173399;28;89287;-64
2022/07/18 05:01:28;;;;;;;3.60;3.30;;;24.10;91.60;;;;;;6167401;28;90049;-64
2022/07/18 05:04:30;;;;;;;3.60;3.30;;;24.10;91.20;;;;;;6167921;28;89455;-64
2022/07/18 05:07:33;;;;;;;3.55;3.25;;;24.10;91.20;;;;;;6174761;28;89067;-64
2022/07/18 05:10:36;;;;;;;3.88;3.47;;;24.10;91.20;;;;;;6169779;28;89076;-64
2022/07/18 05:13:38;;;;;;;4.07;3.20;;;24.10;91.20;;;;;;6178843;28;87223;-64
2022/07/18 05:16:40;;;;;;;3.70;3.40;;;24.10;91.20;;;;;;6164330;28;88029;-64
2022/07/18 05:19:42;;;;;;;3.47;3.17;;;24.10;91.20;;;;;;6181344;28;89021;-64
2022/07/18 05:22:45;;;;;;;4.57;3.78;;;24.10;91.20;;;;;;6176287;28;87168;-64
2022/07/18 05:25:48;;;;;;;3.30;3.00;;;24.10;91.20;;;;;;6168016;28;89120;-64
2022/07/18 05:28:50;;;;;;;3.88;3.47;;;24.10;91.20;;;;;;6158143;28;89025;-64
2022/07/18 05:31:52;;;;;;;3.60;3.30;;;24.10;91.20;;;;;;6157053;28;90065;-64
2022/07/18 05:34:54;;;;;;;3.53;3.22;;;24.10;91.20;;;;;;6175430;28;89035;-64
2022/07/18 05:37:56;;;;;;;3.42;3.13;;;24.10;91.70;;;;;;6179670;28;89268;-64
2022/07/18 05:41:00;;;;;;;3.60;3.30;;;24.10;91.30;;;;;;6175757;28;89324;-64
2022/07/18 05:44:02;;;;;;;3.58;3.28;;;24.10;91.40;;;;;;6169024;28;89451;-64
2022/07/18 05:47:04;;;;;;;4.13;3.63;;;24.10;91.40;;;;;;6171365;28;88969;-65
2022/07/18 05:50:07;;;;;;;3.67;3.38;;;24.20;91.40;;;;;;6182406;28;89143;-65
2022/07/18 05:53:09;;;;;;;3.40;3.10;;;24.10;91.40;;;;;;6173610;28;87268;-65
2022/07/18 05:56:12;;;;;;;3.63;3.30;;;24.20;91.40;;;;;;6177475;28;89159;-65
2022/07/18 05:59:14;;;;;;;3.75;3.38;;;24.10;91.40;;;;;;6196407;28;88983;-65
2022/07/18 06:02:16;;;;;;;4.13;3.45;;;24.10;91.40;;;;;;6182295;28;90133;-65
2022/07/18 06:05:18;;;;;;;3.88;3.00;;;24.20;91.40;;;;;;6163117;28;89218;-65
2022/07/18 06:08:20;;;;;;;3.70;3.30;;;24.20;91.40;;;;;;6183318;28;89109;-65
2022/07/18 06:11:24;;;;;;;3.67;3.00;;;24.10;91.40;;;;;;6163492;28;88976;-65
2022/07/18 06:14:26;;;;;;;3.85;3.30;;;24.20;91.50;;;;;;6178338;28;89718;-65
2022/07/18 06:17:29;;;;;;;4.25;3.45;;;24.20;91.50;;;;;;6179422;28;89231;-65
2022/07/18 06:20:31;;;;;;;3.33;3.03;;;24.20;91.60;;;;;;6176437;28;87853;-65
2022/07/18 06:23:35;;;;;;;3.55;3.25;;;24.20;91.60;;;;;;6185138;28;88786;-65
2022/07/18 06:26:38;;;;;;;3.50;3.20;;;24.20;91.60;;;;;;6182932;28;89038;-65
2022/07/18 06:29:40;;;;;;;3.90;3.33;;;24.20;91.60;;;;;;6169268;28;89089;-64
2022/07/18 06:32:42;;;;;;;3.20;2.90;;;24.20;91.60;;;;;;6178944;28;90037;-65
2022/07/18 06:35:46;;;;;;;3.88;3.45;;;24.20;91.50;;;;;;6173389;28;89090;-65
2022/07/18 06:38:48;;;;;;;3.60;3.03;;;24.30;91.50;;;;;;6183355;28;88063;-65
2022/07/18 06:41:51;;;;;;;3.30;3.00;;;24.20;91.50;;;;;;6185778;28;89138;-65
2022/07/18 06:44:53;;;;;;;3.58;2.90;;;24.20;91.50;;;;;;6171475;28;89420;-65
2022/07/18 06:47:55;;;;;;;2.78;2.58;;;24.20;91.50;;;;;;6168700;28;89171;-65
2022/07/18 06:50:57;;;;;;;5.00;3.20;;;24.20;91.50;;;;;;6182171;28;87908;-65
2022/07/18 06:53:59;;;;;;;3.72;3.30;;;24.20;91.50;;;;;;6177336;28;87258;-65
2022/07/18 06:57:06;;;;;;;3.45;3.15;;;24.20;91.40;;;;;;6173034;28;89238;-65
2022/07/18 07:00:11;;;;;;;3.60;3.30;;;24.20;91.50;;;;;;6186975;28;89100;-65
2022/07/18 07:03:13;;;;;;;3.45;3.13;;;24.20;91.50;;;;;;6175360;28;89986;-65
2022/07/18 07:06:16;;;;;;;3.50;3.20;;;24.20;91.50;;;;;;6171392;28;89091;-65
2022/07/18 07:09:18;;;;;;;3.28;2.97;;;24.20;91.50;;;;;;6181376;28;89127;-65
2022/07/18 07:12:21;;;;;;;3.47;3.17;;;24.20;91.50;;;;;;6183454;28;89095;-65
2022/07/18 07:15:24;;;;;;;4.00;3.03;;;24.20;91.60;;;;;;6171649;28;89546;-65
2022/07/18 07:18:26;;;;;;;3.30;2.95;;;24.30;91.60;;;;;;6172355;28;89061;-65
2022/07/18 07:21:29;;;;;;;3.10;2.90;;;24.30;91.60;;;;;;6181063;28;89105;-65
2022/07/18 07:24:31;;;;;;;3.15;2.95;;;24.30;91.50;;;;;;6174105;28;88388;-65
2022/07/18 07:27:35;;;;;;;3.53;3.22;;;24.30;91.40;;;;;;6178123;28;88974;-65
2022/07/18 07:30:37;;;;;;;3.47;3.17;;;24.30;91.40;;;;;;6180731;28;89117;-65
2022/07/18 07:33:39;;;;;;;3.35;3.05;;;24.30;91.30;;;;;;6161240;28;90181;-65
2022/07/18 07:36:41;;;;;;;3.13;2.88;;;24.30;91.30;;;;;;6157861;28;89247;-65
2022/07/18 07:39:44;;;;;;;3.30;3.08;;;24.30;91.30;;;;;;6161556;28;89181;-65
2022/07/18 07:42:47;;;;;;;3.33;3.03;;;24.20;91.30;;;;;;6170503;28;88208;-65
2022/07/18 07:45:50;;;;;;;3.20;2.90;;;24.20;91.20;;;;;;6181910;28;88085;-65
2022/07/18 07:48:52;;;;;;;2.90;2.60;;;24.20;91.10;;;;;;6170669;28;89295;-65
2022/07/18 07:51:54;;;;;;;3.22;2.92;;;24.20;91.10;;;;;;6180893;28;90714;-65
2022/07/18 07:54:56;;;;;;;3.38;3.08;;;24.30;91.10;;;;;;6162488;28;88376;-65
2022/07/18 07:57:59;;;;;;;3.60;2.97;;;24.20;91.20;;;;;;6163409;28;88367;-65
2022/07/18 08:01:01;;;;;;;3.30;3.00;;;24.30;91.20;;;;;;6176641;28;89094;-65
2022/07/18 08:04:03;;;;;;;3.30;3.00;;;24.30;91.20;;;;;;6169964;28;89631;-65
2022/07/18 08:07:05;;;;;;;2.97;2.65;;;24.30;91.10;;;;;;6170797;28;89071;-65
2022/07/18 08:10:08;;;;;;;2.90;2.70;;;24.30;91.10;;;;;;6170879;28;89122;-65
2022/07/18 08:13:13;;;;;;;3.63;2.70;;;24.30;91.00;;;;;;6178439;28;89454;-65
2022/07/18 08:16:15;;;;;;;3.15;2.70;;;24.30;91.00;;;;;;6167411;28;89133;-65
2022/07/18 08:19:17;;;;;;;3.22;2.92;;;24.30;91.00;;;;;;6174757;28;89070;-65
2022/07/18 08:22:19;;;;;;;3.30;3.00;;;24.30;91.00;;;;;;6183926;28;89091;-65
2022/07/18 08:25:21;;;;;;;3.60;3.30;;;24.30;91.10;;;;;;6170965;28;88334;-65
2022/07/18 08:28:24;;;;;;;3.10;2.80;;;24.30;91.10;;;;;;6164672;28;89154;-65
2022/07/18 08:31:26;;;;;;;3.05;2.75;;;24.30;91.00;;;;;;6174993;28;89099;-65
2022/07/18 08:34:28;;;;;;;3.60;2.97;;;24.20;91.00;;;;;;6169536;28;90080;-66
2022/07/18 08:37:30;;;;;;;3.10;2.90;;;24.30;91.00;;;;;;6161057;28;88015;-65
2022/07/18 08:40:35;;;;;;;4.05;3.22;;;24.30;91.00;;;;;;6170638;28;89024;-65
2022/07/18 08:43:39;;;;;;;3.20;2.90;;;24.20;91.10;;;;;;6158094;28;89050;-65
2022/07/18 08:46:44;;;;;;;2.90;2.65;;;24.30;91.10;;;;;;6158125;28;89385;-65
2022/07/18 08:49:47;;;;;;;2.90;2.70;;;24.30;91.10;;;;;;6169083;28;89426;-65
2022/07/18 08:52:50;;;;;;;3.22;2.92;;;24.30;91.10;;;;;;6168354;28;87719;-65
2022/07/18 08:55:52;;;;;;;3.30;3.00;;;24.20;91.00;;;;;;6170728;28;88798;-65
2022/07/18 08:58:55;;;;;;;3.05;2.75;;;24.30;91.00;;;;;;6182334;28;88166;-65
2022/07/18 09:01:57;;;;;;;2.53;2.33;;;24.30;91.00;;;;;;6182347;28;89107;-65
2022/07/18 09:05:01;;;;;;;4.45;2.55;;;24.30;91.00;;;;;;6158449;28;90032;-65
2022/07/18 09:08:10;;;;;;;3.10;2.72;;;24.30;90.80;;;;;;6176854;28;89092;-65
2022/07/18 09:11:13;;;;;;;3.00;2.70;;;24.20;90.60;;;;;;6181328;28;89144;-65
2022/07/18 09:14:38;;;;;;;2.80;2.60;;;24.30;90.60;;;;;;6175582;28;89104;-65
2022/07/18 09:17:40;;;;;;;3.15;2.85;;;24.30;90.60;;;;;;6167763;28;89202;-65
2022/07/18 09:20:43;;;;;;;2.83;2.60;;;24.20;90.70;;;;;;6178261;28;89168;-66
2022/07/18 09:23:48;;;;;;;2.88;2.67;;;24.20;90.70;;;;;;6176455;28;89086;-65
2022/07/18 09:26:52;;;;;;;2.50;2.30;;;24.30;90.70;;;;;;6163716;28;89147;-65
2022/07/18 09:30:28;;;;;;;2.75;2.55;;;24.20;91.00;;;;;;6166705;28;89454;-65
2022/07/18 09:33:30;;;;;;;3.28;2.80;;;24.20;91.20;;;;;;6162759;28;89657;-65
2022/07/18 09:36:36;;;;;;;2.85;2.60;;;24.20;91.20;;;;;;6175257;28;90097;-65
2022/07/18 09:39:37;;;;;;;2.75;2.55;;;24.20;91.30;;;;;;6163616;28;89092;-65
2022/07/18 09:42:40;;;;;;;2.70;2.50;;;24.20;91.30;;;;;;6168532;28;89229;-65
2022/07/18 09:45:46;;;;;;;3.92;2.75;;;24.30;91.40;;;;;;6175589;28;89019;-65
2022/07/18 09:48:48;;;;;;;2.83;2.50;;;24.30;91.30;;;;;;6172071;28;90303;-66
2022/07/18 09:52:06;;;;;;;3.00;2.70;;;24.30;91.20;;;;;;6172011;28;91422;-65
2022/07/18 09:55:09;;;;;;;2.70;2.50;;;24.30;91.10;;;;;;6166392;28;87950;-65
2022/07/18 09:58:11;;;;;;;3.15;2.80;;;24.30;90.80;;;;;;6172605;28;88417;-65
2022/07/18 10:01:15;;;;;;;3.13;2.60;;;24.30;90.70;;;;;;6180426;28;89106;-65
2022/07/18 10:04:17;;;;;;;2.75;2.50;;;24.30;90.40;;;;;;6162526;28;89052;-66
2022/07/18 10:07:19;;;;;;;3.42;3.00;;;24.30;90.30;;;;;;6173208;28;90005;-65
2022/07/18 10:10:24;;;;;;;2.70;2.50;;;24.20;89.90;;;;;;6173182;28;89472;-65
2022/07/18 10:13:27;;;;;;;2.70;2.50;;;24.30;89.90;;;;;;6183249;28;89810;-66
2022/07/18 10:16:31;;;;;;;3.05;2.40;;;24.20;90.30;;;;;;6182318;28;89091;-65
2022/07/18 10:19:35;;;;;;;2.42;2.22;;;24.30;90.40;;;;;;6174970;28;88560;-66
2022/07/18 10:22:42;;;;;;;2.67;2.30;;;24.30;90.40;;;;;;6163559;28;89444;-66
2022/07/18 10:25:44;;;;;;;2.60;2.40;;;24.30;90.40;;;;;;6164414;28;89104;-66
2022/07/18 10:29:19;;;;;;;2.97;2.72;;;24.30;90.40;;;;;;6170168;28;88269;-65
2022/07/18 10:32:33;;;;;;;2.60;2.40;;;24.30;90.30;;;;;;6157247;28;88722;-66
2022/07/18 10:36:01;;;;;;;2.80;2.40;;;24.30;90.20;;;;;;6167624;28;89215;-65
2022/07/18 10:39:07;;;;;;;2.70;2.50;;;24.20;89.30;;;;;;6170386;28;90327;-65
2022/07/18 10:42:30;;;;;;;3.03;2.50;;;24.30;88.90;;;;;;6182756;28;88809;-65
2022/07/18 10:45:44;;;;;;;2.47;2.28;;;24.30;88.60;;;;;;6166886;28;89564;-65
2022/07/18 10:48:58;;;;;;;2.83;2.42;;;24.30;89.30;;;;;;6161418;28;89110;-66
2022/07/18 10:52:00;;;;;;;4.45;2.60;;;24.30;88.60;;;;;;6159928;28;89087;-65
2022/07/18 10:55:32;;;;;;;3.22;2.40;;;24.30;88.10;;;;;;6164423;28;89093;-65
2022/07/18 10:58:40;;;;;;;2.60;2.40;;;24.30;87.10;;;;;;6162760;28;89170;-65
2022/07/18 11:01:49;;;;;;;2.60;2.40;;;24.30;88.30;;;;;;6169047;28;88355;-65
2022/07/18 11:04:52;;;;;;;2.45;2.25;;;24.30;89.10;;;;;;6163656;28;89204;-65
2022/07/18 11:08:24;;;;;;;2.47;2.28;;;24.30;89.50;;;;;;6164652;28;89161;-65
2022/07/18 11:11:26;;;;;;;3.17;2.33;;;24.30;90.20;;;;;;6169491;28;88984;-66
2022/07/18 11:15:00;;;;;;;2.70;2.50;;;24.30;89.60;;;;;;6169607;28;89115;-65
2022/07/18 11:18:06;;;;;;;2.53;2.30;;;24.30;89.40;;;;;;6169809;28;89131;-66
2022/07/18 11:21:17;;;;;;;3.88;2.33;;;24.30;88.60;;;;;;6175771;28;89011;-66
2022/07/18 11:24:21;;;;;;;3.08;2.75;;;24.30;86.90;;;;;;6168573;28;88050;-66
2022/07/18 11:27:24;;;;;;;2.50;2.28;;;24.30;86.10;;;;;;6159816;28;89196;-65
2022/07/18 11:30:26;;;;;;;3.63;2.38;;;24.30;85.40;;;;;;6171008;28;89103;-66
2022/07/18 11:33:30;;;;;;;2.50;2.30;;;24.30;84.90;;;;;;6161215;28;87766;-66
2022/07/18 11:36:34;;;;;;;2.60;2.40;;;24.30;85.20;;;;;;6172726;28;89039;-66
2022/07/18 11:39:36;;;;;;;3.00;2.40;;;24.30;85.40;;;;;;6167047;28;89632;-66
2022/07/18 11:42:39;;;;;;;2.53;2.33;;;24.30;85.70;;;;;;6167350;28;90355;-66
2022/07/18 11:45:41;;;;;;;2.40;2.20;;;24.30;85.90;;;;;;6181357;28;89308;-66
2022/07/18 11:48:45;;;;;;;2.50;2.20;;;24.30;87.10;;;;;;6166876;28;89469;-66
2022/07/18 11:51:50;;;;;;;2.42;2.22;;;24.30;87.60;;;;;;6181683;28;89099;-67
2022/07/18 11:54:52;;;;;;;2.78;2.40;;;24.30;87.50;;;;;;6170929;28;89105;-66
2022/07/18 11:57:55;;;;;;;2.60;2.40;;;24.30;87.60;;;;;;6181641;28;89572;-66
2022/07/18 12:01:00;;;;;;;2.15;1.95;;;24.30;87.20;;;;;;6171549;28;89285;-66
2022/07/18 12:04:03;;;;;;;2.55;2.08;;;24.30;87.00;;;;;;6169095;28;88980;-66
2022/07/18 12:07:30;;;;;;;2.20;1.98;;;24.30;86.70;;;;;;6174558;28;89443;-66
2022/07/18 12:10:32;;;;;;;2.35;2.15;;;24.30;85.50;;;;;;6160325;28;89406;-66
2022/07/18 12:13:46;;;;;;;2.15;2.00;;;24.30;84.40;;;;;;6171338;28;89274;-66
2022/07/18 12:16:49;;;;;;;2.33;2.10;;;24.30;84.70;;;;;;6171362;28;89112;-66
2022/07/18 12:19:51;;;;;;;3.35;2.10;;;24.30;85.00;;;;;;6165233;28;89151;-66
2022/07/18 12:23:11;;;;;;;2.13;1.92;;;24.30;83.60;;;;;;6168162;28;89148;-66
2022/07/18 12:26:27;;;;;;;2.90;2.10;;;24.30;83.00;;;;;;6160286;28;89083;-67
2022/07/18 12:29:29;;;;;;;3.13;2.28;;;24.30;83.00;;;;;;6172209;28;89203;-66
2022/07/18 12:32:39;;;;;;;2.72;2.17;;;24.30;82.80;;;;;;6164261;28;89074;-66
2022/07/18 12:35:42;;;;;;;3.05;2.30;;;24.30;84.50;;;;;;6171848;28;88303;-66
2022/07/18 12:39:00;;;;;;;2.47;2.10;;;24.30;85.00;;;;;;6174297;28;89096;-66
2022/07/18 12:42:03;;;;;;;2.25;2.05;;;24.30;85.50;;;;;;6164101;28;89015;-66
2022/07/18 12:45:06;;;;;;;2.05;1.92;;;24.30;85.40;;;;;;6172349;28;90003;-66
2022/07/18 12:48:10;;;;;;;2.38;2.10;;;24.30;85.30;;;;;;6166520;28;88028;-66
2022/07/18 12:51:12;;;;;;;2.45;1.90;;;24.30;85.40;;;;;;6179217;28;89057;-66
2022/07/18 12:54:16;;;;;;;2.13;1.90;;;24.30;85.10;;;;;;6170605;28;89398;-66
2022/07/18 12:57:18;;;;;;;2.38;2.15;;;24.30;84.40;;;;;;6171084;28;89113;-66
2022/07/18 13:00:20;;;;;;;2.22;2.03;;;24.30;84.20;;;;;;6162605;28;89015;-66
2022/07/18 13:03:22;;;;;;;2.75;2.15;;;24.30;82.70;;;;;;6162075;28;87993;-66
2022/07/18 13:06:24;;;;;;;2.47;2.10;;;24.30;82.30;;;;;;6169537;28;87527;-66
2022/07/18 13:09:27;;;;;;;2.08;1.80;;;24.30;81.80;;;;;;6181799;28;89068;-66
2022/07/18 13:12:30;;;;;;;2.80;2.10;;;24.30;82.00;;;;;;6167463;28;89172;-67
2022/07/18 13:15:32;;;;;;;2.80;2.40;;;24.30;82.20;;;;;;6165059;28;90121;-66
2022/07/18 13:18:34;;;;;;;2.78;2.00;;;24.30;82.90;;;;;;6157797;28;89104;-66
2022/07/18 13:21:36;;;;;;;2.15;1.95;;;24.30;83.80;;;;;;6163175;28;89495;-66
2022/07/18 13:24:39;;;;;;;2.33;2.08;;;24.30;84.00;;;;;;6171212;28;89373;-67
2022/07/18 13:27:42;;;;;;;2.25;1.83;;;24.30;84.00;;;;;;6168251;28;89367;-66
2022/07/18 13:30:44;;;;;;;2.30;2.10;;;24.30;83.90;;;;;;6175223;28;90013;-67
2022/07/18 13:33:47;;;;;;;1.90;1.80;;;24.30;83.80;;;;;;6164006;28;89226;-67
2022/07/18 13:36:50;;;;;;;2.22;2.03;;;24.30;84.10;;;;;;6170050;28;88209;-66
2022/07/18 13:39:53;;;;;;;2.78;2.13;;;24.30;83.80;;;;;;6157839;28;89041;-67
2022/07/18 13:42:55;;;;;;;2.45;2.00;;;24.30;84.20;;;;;;6171638;28;87862;-66
2022/07/18 13:45:57;;;;;;;3.80;2.45;;;24.30;83.20;;;;;;6177265;28;90025;-66
2022/07/18 13:48:59;;;;;;;2.10;1.90;;;24.30;82.90;;;;;;6175060;28;88929;-66
2022/07/18 13:52:02;;;;;;;1.83;1.73;;;24.30;83.30;;;;;;6176627;28;89047;-67
2022/07/18 13:55:06;;;;;;;1.85;1.75;;;24.30;83.80;;;;;;6174034;28;89180;-66
2022/07/18 13:58:09;;;;;;;2.33;2.05;;;24.30;84.40;;;;;;6171697;28;89089;-67
2022/07/18 14:01:13;;;;;;;2.70;2.20;;;24.30;84.40;;;;;;6166540;28;89034;-67
2022/07/18 14:04:15;;;;;;;2.33;1.92;;;24.30;84.20;;;;;;6169905;28;89032;-67
2022/07/18 14:07:18;;;;;;;2.40;2.20;;;24.30;84.40;;;;;;6167352;28;88279;-67
2022/07/18 14:10:21;;;;;;;2.22;2.03;;;24.30;85.40;;;;;;6169773;28;89080;-67
2022/07/18 14:13:23;;;;;;;2.20;2.00;;;24.30;85.60;;;;;;6172654;28;89116;-67
2022/07/18 14:16:25;;;;;;;2.40;2.20;;;24.30;85.70;;;;;;6181016;28;90314;-67
2022/07/18 14:19:28;;;;;;;2.20;2.00;;;24.30;85.70;;;;;;6172081;28;88178;-66
2022/07/18 14:22:30;;;;;;;2.13;1.90;;;24.30;85.90;;;;;;6183068;28;89170;-67
2022/07/18 14:25:33;;;;;;;2.00;1.90;;;24.40;86.30;;;;;;6160930;28;90627;-66
2022/07/18 14:28:35;;;;;;;2.22;2.03;;;24.30;86.00;;;;;;6158050;28;89351;-66
2022/07/18 14:31:37;;;;;;;2.67;2.10;;;24.30;86.20;;;;;;6179352;28;89032;-67
2022/07/18 14:34:39;;;;;;;2.58;2.28;;;24.30;85.80;;;;;;6177567;28;89111;-67
2022/07/18 14:37:41;;;;;;;2.40;2.10;;;24.30;86.00;;;;;;6172673;28;88390;-67
2022/07/18 14:40:45;;;;;;;3.40;2.13;;;24.30;85.90;;;;;;6175296;28;89414;-67
2022/07/18 14:43:47;;;;;;;2.80;2.55;;;24.30;85.90;;;;;;6168915;28;89212;-66
2022/07/18 14:46:49;;;;;;;1.80;1.70;;;24.30;84.70;;;;;;6158849;28;88956;-67
2022/07/18 14:49:51;;;;;;;1.70;1.60;;;24.30;85.00;;;;;;6159512;28;88223;-67
2022/07/18 14:52:53;;;;;;;2.40;2.17;;;24.30;85.40;;;;;;6168636;28;89092;-67
2022/07/18 14:55:56;;;;;;;2.00;1.80;;;24.30;86.20;;;;;;6176252;28;89225;-67
2022/07/18 14:58:58;;;;;;;2.25;2.05;;;24.30;86.40;;;;;;6172650;28;89154;-67
2022/07/18 15:02:05;;;;;;;2.38;2.05;;;24.40;86.20;;;;;;6175839;28;89394;-67
2022/07/18 15:05:08;;;;;;;1.70;1.60;;;24.30;86.10;;;;;;6165283;28;90387;-66
2022/07/18 15:08:10;;;;;;;2.15;1.98;;;24.30;86.50;;;;;;6168547;28;87252;-67
2022/07/18 15:11:14;;;;;;;2.15;1.75;;;24.30;86.70;;;;;;6182472;28;89474;-66
2022/07/18 15:14:16;;;;;;;1.83;1.73;;;24.40;86.00;;;;;;6179059;28;89078;-66
2022/07/18 15:17:18;;;;;;;2.00;1.80;;;24.30;86.10;;;;;;6173058;28;90449;-67
2022/07/18 15:20:20;;;;;;;2.30;2.10;;;24.30;86.20;;;;;;6180567;28;89098;-66
2022/07/18 15:23:22;;;;;;;1.80;1.70;;;24.40;86.10;;;;;;6183115;28;89126;-67
2022/07/18 15:26:26;;;;;;;2.08;1.85;;;24.30;86.00;;;;;;6178063;28;87977;-66
2022/07/18 15:29:28;;;;;;;1.85;1.75;;;24.30;85.80;;;;;;6171938;28;89426;-65
2022/07/18 15:32:30;;;;;;;1.95;1.75;;;24.30;85.60;;;;;;6171997;28;89380;-65
2022/07/18 15:35:32;;;;;;;2.17;1.92;;;24.30;85.60;;;;;;6179790;28;89077;-65
2022/07/18 15:38:34;;;;;;;2.17;1.75;;;24.40;84.90;;;;;;6171443;28;88399;-65
2022/07/18 15:41:38;;;;;;;2.20;2.00;;;24.30;85.00;;;;;;6177907;28;89050;-65
2022/07/18 15:44:40;;;;;;;1.92;1.80;;;24.40;85.50;;;;;;6158904;28;89138;-65
2022/07/18 15:47:42;;;;;;;2.30;1.80;;;24.40;85.70;;;;;;6164847;28;89332;-65
2022/07/18 15:50:44;;;;;;;2.47;1.90;;;24.30;86.00;;;;;;6163493;28;89060;-65
2022/07/18 15:53:46;;;;;;;2.35;1.60;;;24.40;86.10;;;;;;6158157;28;89139;-65
2022/07/18 15:56:50;;;;;;;2.08;1.88;;;24.40;86.40;;;;;;6174551;28;88987;-65
2022/07/18 15:59:52;;;;;;;1.90;1.80;;;24.40;86.60;;;;;;6168603;28;89376;-65